Time;durP1;ratioP1;P1;durP2;ratioP2;P2;SDS_P1;SDS_P2;PMS_P1;PMS_P2;Temp;Humidity;BMP_temperature;BMP_pressure;BME280_temperature;BME280_humidity;BME280_pressure;Samples;Min_cycle;Max_cycle;Signal;HPM_P1;HPM_P2
2024/02/20 00:00:05;;;;;;;9.00;5.60;;;8.30;99.90;;;;;;5046220;28;20475;-69
2024/02/20 00:02:32;;;;;;;7.80;4.97;;;8.30;99.90;;;;;;5045630;28;20255;-69
2024/02/20 00:04:58;;;;;;;8.40;4.87;;;8.30;99.90;;;;;;5060201;28;20478;-68
2024/02/20 00:07:23;;;;;;;5.73;4.53;;;8.30;99.90;;;;;;5059951;28;20822;-68
2024/02/20 00:09:49;;;;;;;4.13;3.73;;;8.30;99.90;;;;;;5054313;28;20183;-68
2024/02/20 00:12:15;;;;;;;5.53;4.00;;;8.30;99.90;;;;;;5060012;28;20173;-69
2024/02/20 00:14:41;;;;;;;7.40;4.00;;;8.30;99.90;;;;;;5033485;28;20178;-69
2024/02/20 00:17:07;;;;;;;5.97;3.93;;;8.30;99.90;;;;;;5046238;28;20951;-68
2024/02/20 00:19:33;;;;;;;7.10;4.10;;;8.30;99.90;;;;;;5054373;28;20546;-68
2024/02/20 00:21:58;;;;;;;6.77;4.20;;;8.30;99.90;;;;;;5049525;28;20436;-69
2024/02/20 00:24:24;;;;;;;4.80;3.70;;;8.30;99.90;;;;;;5058078;28;20450;-66
2024/02/20 00:26:49;;;;;;;4.23;3.70;;;8.30;99.90;;;;;;5055406;28;20184;-67
2024/02/20 00:29:15;;;;;;;5.07;3.50;;;8.30;99.90;;;;;;5049538;28;20680;-69
2024/02/20 00:31:40;;;;;;;4.53;4.03;;;8.30;99.90;;;;;;5057483;28;20177;-66
2024/02/20 00:34:06;;;;;;;5.37;4.10;;;8.30;99.90;;;;;;5065772;28;20224;-67
2024/02/20 00:36:31;;;;;;;4.00;3.60;;;8.40;99.90;;;;;;5051379;28;20177;-67
2024/02/20 00:38:57;;;;;;;5.30;4.43;;;8.30;99.90;;;;;;5052413;28;20216;-67
2024/02/20 00:41:23;;;;;;;6.60;5.17;;;8.30;99.90;;;;;;5059754;28;20630;-67
2024/02/20 00:43:49;;;;;;;6.50;5.20;;;8.20;99.90;;;;;;5051976;28;20292;-67
2024/02/20 00:46:23;;;;;;;4.27;3.87;;;8.20;99.90;;;;;;5050274;28;20257;-67
2024/02/20 00:48:50;;;;;;;4.10;3.70;;;8.10;99.90;;;;;;5052856;28;20193;-67
2024/02/20 00:51:17;;;;;;;4.83;3.67;;;8.00;99.90;;;;;;5065022;28;20415;-67
2024/02/20 00:53:43;;;;;;;3.70;3.40;;;8.00;99.90;;;;;;5053656;28;20424;-67
2024/02/20 00:56:09;;;;;;;9.53;4.20;;;8.00;99.90;;;;;;5057031;28;20430;-67
2024/02/20 00:58:34;;;;;;;3.97;3.60;;;8.00;99.90;;;;;;5053575;28;20553;-67
2024/02/20 01:01:00;;;;;;;3.80;3.37;;;8.00;99.90;;;;;;5053838;28;20191;-67
2024/02/20 01:03:26;;;;;;;10.50;4.27;;;8.00;99.90;;;;;;5058376;28;20209;-67
2024/02/20 01:05:52;;;;;;;5.43;4.00;;;8.00;99.90;;;;;;5041938;28;20177;-67
2024/02/20 01:08:17;;;;;;;5.30;4.47;;;7.90;99.90;;;;;;5052477;28;20820;-67
2024/02/20 01:10:43;;;;;;;6.97;3.60;;;7.90;99.90;;;;;;5061371;28;20173;-66
2024/02/20 01:13:09;;;;;;;6.13;4.57;;;7.90;99.90;;;;;;5062892;28;21842;-67
2024/02/20 01:15:34;;;;;;;10.50;4.67;;;7.90;99.90;;;;;;5059260;28;20538;-67
2024/02/20 01:18:00;;;;;;;6.63;5.17;;;7.90;99.90;;;;;;5060975;28;20201;-68
2024/02/20 01:20:27;;;;;;;6.50;3.87;;;7.90;99.90;;;;;;5066398;28;20630;-66
2024/02/20 01:22:53;;;;;;;5.73;4.37;;;7.90;99.90;;;;;;5056106;28;20498;-69
2024/02/20 01:25:19;;;;;;;6.00;4.50;;;7.90;99.90;;;;;;5050001;28;20430;-69
2024/02/20 01:27:46;;;;;;;8.83;5.80;;;7.80;99.90;;;;;;5048940;28;20474;-69
2024/02/20 01:30:12;;;;;;;5.60;4.30;;;7.80;99.90;;;;;;5059850;28;20433;-69
2024/02/20 01:32:38;;;;;;;6.50;5.17;;;7.80;99.90;;;;;;5053900;28;20925;-69
2024/02/20 01:35:05;;;;;;;5.97;3.67;;;7.80;99.90;;;;;;5048055;28;20503;-69
2024/02/20 01:37:30;;;;;;;4.90;3.63;;;7.80;99.90;;;;;;5051901;28;20459;-69
2024/02/20 01:39:56;;;;;;;7.37;4.20;;;7.80;99.90;;;;;;5047887;28;20436;-69
2024/02/20 01:42:22;;;;;;;4.67;4.20;;;7.80;99.90;;;;;;5053986;28;20182;-69
2024/02/20 01:44:48;;;;;;;5.33;3.67;;;7.70;99.90;;;;;;5034235;28;20223;-69
2024/02/20 01:47:14;;;;;;;7.23;4.33;;;7.70;99.90;;;;;;5056508;28;20465;-66
2024/02/20 01:49:41;;;;;;;7.87;4.87;;;7.60;99.90;;;;;;5060837;28;20435;-67
2024/02/20 01:52:12;;;;;;;4.90;4.43;;;7.70;99.90;;;;;;5055603;28;20438;-67
2024/02/20 01:54:39;;;;;;;6.80;4.13;;;7.70;99.90;;;;;;5049921;28;20803;-67
2024/02/20 01:57:06;;;;;;;4.73;4.20;;;7.70;99.90;;;;;;5048610;28;20513;-67
2024/02/20 01:59:33;;;;;;;4.50;4.10;;;7.70;99.90;;;;;;5058782;28;20533;-67
2024/02/20 02:01:59;;;;;;;8.50;4.40;;;7.70;99.90;;;;;;5054344;28;20706;-67
2024/02/20 02:04:24;;;;;;;6.63;4.83;;;7.70;99.90;;;;;;5065594;28;20892;-67
2024/02/20 02:06:50;;;;;;;5.67;5.03;;;7.70;99.90;;;;;;5042099;28;20232;-67
2024/02/20 02:09:15;;;;;;;4.60;4.10;;;7.70;99.90;;;;;;5053999;28;20280;-66
2024/02/20 02:11:41;;;;;;;4.70;3.70;;;7.70;99.90;;;;;;5056671;28;20642;-66
2024/02/20 02:14:07;;;;;;;6.93;4.60;;;7.70;99.90;;;;;;5059180;28;20194;-67
2024/02/20 02:16:33;;;;;;;5.83;5.20;;;7.70;99.90;;;;;;5046791;28;20238;-67
2024/02/20 02:18:59;;;;;;;5.20;3.70;;;7.70;99.90;;;;;;5050546;28;20457;-67
2024/02/20 02:21:24;;;;;;;6.43;4.13;;;7.60;99.90;;;;;;5060632;28;20436;-67
2024/02/20 02:23:50;;;;;;;5.13;3.83;;;7.60;99.90;;;;;;5046013;28;20256;-67
2024/02/20 02:26:16;;;;;;;6.00;4.20;;;7.60;99.90;;;;;;5044062;28;20172;-66
2024/02/20 02:28:47;;;;;;;6.07;3.47;;;7.70;99.90;;;;;;5062919;28;20192;-67
2024/02/20 02:31:16;;;;;;;4.77;4.30;;;7.70;99.90;;;;;;5049419;28;20765;-67
2024/02/20 02:33:45;;;;;;;6.07;4.03;;;7.70;99.90;;;;;;5057633;28;20812;-67
2024/02/20 02:36:12;;;;;;;7.43;3.90;;;7.70;99.90;;;;;;5054982;28;20485;-67
2024/02/20 02:38:38;;;;;;;10.80;4.80;;;7.60;99.90;;;;;;5062204;28;20496;-67
2024/02/20 02:41:03;;;;;;;7.30;4.20;;;7.60;99.90;;;;;;5048752;28;20463;-67
2024/02/20 02:43:29;;;;;;;9.80;4.63;;;7.60;99.90;;;;;;5031778;28;20202;-67
2024/02/20 02:45:54;;;;;;;5.80;4.00;;;7.60;99.90;;;;;;5035570;28;20567;-67
2024/02/20 02:48:20;;;;;;;9.30;4.67;;;7.60;99.90;;;;;;5052108;28;20683;-67
2024/02/20 02:50:45;;;;;;;5.93;3.37;;;7.60;99.90;;;;;;5053591;28;20202;-67
2024/02/20 02:53:11;;;;;;;10.07;4.57;;;7.60;99.90;;;;;;5041308;28;20189;-67
2024/02/20 02:55:36;;;;;;;4.57;3.37;;;7.60;99.90;;;;;;5048815;28;20219;-67
2024/02/20 02:58:02;;;;;;;8.93;3.70;;;7.60;99.90;;;;;;5049925;28;20209;-67
2024/02/20 03:00:27;;;;;;;10.03;4.00;;;7.60;99.90;;;;;;5050062;28;20177;-67
2024/02/20 03:02:53;;;;;;;4.67;3.47;;;7.60;99.90;;;;;;5052715;28;20196;-67
2024/02/20 03:05:19;;;;;;;9.83;3.70;;;7.60;99.90;;;;;;5036237;28;20200;-67
2024/02/20 03:07:44;;;;;;;8.40;3.43;;;7.60;99.90;;;;;;5044783;28;20206;-67
2024/02/20 03:10:11;;;;;;;5.27;3.20;;;7.60;99.90;;;;;;5049867;28;20600;-67
2024/02/20 03:12:37;;;;;;;4.30;2.87;;;7.60;99.90;;;;;;5048411;28;20185;-67
2024/02/20 03:15:04;;;;;;;6.40;3.57;;;7.70;99.90;;;;;;5060994;28;20522;-67
2024/02/20 03:17:30;;;;;;;7.53;3.93;;;7.70;99.90;;;;;;5051212;28;20496;-68
2024/02/20 03:19:56;;;;;;;5.97;3.20;;;7.70;99.90;;;;;;5049436;28;20435;-67
2024/02/20 03:22:22;;;;;;;3.07;2.50;;;7.80;99.90;;;;;;5042784;28;20435;-67
2024/02/20 03:24:48;;;;;;;3.30;2.87;;;7.80;99.90;;;;;;5056863;28;20464;-67
2024/02/20 03:27:13;;;;;;;5.70;3.60;;;7.80;99.90;;;;;;5044914;28;20190;-67
2024/02/20 03:29:41;;;;;;;7.50;4.00;;;7.80;99.90;;;;;;5056061;28;20278;-68
2024/02/20 03:32:07;;;;;;;8.20;3.90;;;7.80;99.90;;;;;;5052472;28;20647;-67
2024/02/20 03:34:33;;;;;;;5.70;3.00;;;7.80;99.90;;;;;;5053603;28;20435;-67
2024/02/20 03:36:58;;;;;;;8.30;3.07;;;7.80;99.90;;;;;;5046117;28;20425;-67
2024/02/20 03:39:24;;;;;;;7.33;4.17;;;7.90;99.90;;;;;;5051070;28;20197;-67
2024/02/20 03:41:50;;;;;;;5.40;3.63;;;7.90;99.90;;;;;;5063729;28;20256;-67
2024/02/20 03:44:15;;;;;;;5.37;3.67;;;7.90;99.90;;;;;;5048821;28;20201;-67
2024/02/20 03:46:41;;;;;;;9.63;3.83;;;7.90;99.90;;;;;;5039063;28;20421;-67
2024/02/20 03:49:07;;;;;;;7.83;3.53;;;7.90;99.90;;;;;;5043988;28;20201;-68
2024/02/20 03:51:33;;;;;;;5.13;2.97;;;7.80;99.90;;;;;;5061944;28;20173;-67
2024/02/20 03:53:59;;;;;;;5.37;2.80;;;7.80;99.90;;;;;;5057056;28;20940;-67
2024/02/20 03:56:25;;;;;;;7.60;4.33;;;7.80;99.90;;;;;;5054559;28;20204;-67
2024/02/20 03:58:50;;;;;;;7.47;5.10;;;7.70;99.90;;;;;;5052226;28;20205;-67
2024/02/20 04:01:16;;;;;;;5.60;3.23;;;7.70;99.90;;;;;;5057741;28;20423;-67
2024/02/20 04:03:41;;;;;;;6.80;4.20;;;7.70;99.90;;;;;;5051737;28;20197;-67
2024/02/20 04:06:08;;;;;;;6.37;4.40;;;7.70;99.90;;;;;;5049564;28;20547;-67
2024/02/20 04:08:34;;;;;;;7.77;3.90;;;7.70;99.90;;;;;;5058139;28;20189;-67
2024/02/20 04:11:00;;;;;;;7.03;3.73;;;7.60;99.90;;;;;;5057525;28;20506;-67
2024/02/20 04:13:25;;;;;;;4.87;3.10;;;7.50;99.90;;;;;;5062739;28;20566;-67
2024/02/20 04:15:51;;;;;;;8.20;3.67;;;7.50;99.90;;;;;;5042345;28;20553;-67
2024/02/20 04:18:17;;;;;;;6.47;3.80;;;7.40;99.90;;;;;;5044360;28;20185;-67
2024/02/20 04:20:42;;;;;;;5.80;3.10;;;7.40;99.90;;;;;;5065085;28;20445;-67
2024/02/20 04:23:08;;;;;;;10.03;4.37;;;7.50;99.90;;;;;;5058884;28;20224;-67
2024/02/20 04:25:33;;;;;;;7.43;3.90;;;7.50;99.90;;;;;;5051715;28;20172;-67
2024/02/20 04:27:59;;;;;;;10.07;4.40;;;7.50;99.90;;;;;;5047145;28;20693;-67
2024/02/20 04:30:25;;;;;;;7.13;3.43;;;7.40;99.90;;;;;;5053890;28;20668;-67
2024/02/20 04:32:51;;;;;;;8.50;4.00;;;7.40;99.90;;;;;;5055303;28;20252;-67
2024/02/20 04:35:16;;;;;;;6.53;3.10;;;7.30;99.90;;;;;;5055391;28;20213;-67
2024/02/20 04:37:44;;;;;;;7.50;3.00;;;7.30;99.90;;;;;;5054600;28;20709;-67
2024/02/20 04:40:10;;;;;;;8.40;4.33;;;7.20;99.90;;;;;;5058350;28;20221;-67
2024/02/20 04:42:35;;;;;;;6.57;3.73;;;7.10;99.90;;;;;;5059062;28;20435;-67
2024/02/20 04:45:01;;;;;;;8.30;3.17;;;7.10;99.90;;;;;;5036414;28;20460;-67
2024/02/20 04:47:28;;;;;;;5.90;3.77;;;7.10;99.90;;;;;;5057554;28;20196;-67
2024/02/20 04:49:53;;;;;;;9.30;3.77;;;7.10;99.90;;;;;;5053104;28;20177;-66
2024/02/20 04:52:19;;;;;;;6.60;3.67;;;7.10;99.90;;;;;;5061322;28;20443;-67
2024/02/20 04:54:45;;;;;;;8.90;3.47;;;7.10;99.90;;;;;;5058708;28;20268;-67
2024/02/20 04:57:10;;;;;;;6.90;3.80;;;7.10;99.90;;;;;;5046786;28;20552;-66
2024/02/20 04:59:36;;;;;;;9.10;3.90;;;7.10;99.90;;;;;;5049691;28;20182;-67
2024/02/20 05:02:02;;;;;;;9.20;3.47;;;7.10;99.90;;;;;;5054865;28;20189;-67
2024/02/20 05:04:27;;;;;;;7.93;4.60;;;7.20;99.90;;;;;;5053633;28;20200;-66
2024/02/20 05:06:53;;;;;;;6.23;3.43;;;7.20;99.90;;;;;;5052297;28;20511;-67
2024/02/20 05:09:19;;;;;;;7.00;3.60;;;7.20;99.90;;;;;;5056915;28;20204;-67
2024/02/20 05:11:44;;;;;;;9.27;3.63;;;7.20;99.90;;;;;;5056156;28;20416;-67
2024/02/20 05:14:10;;;;;;;8.70;4.13;;;7.20;99.90;;;;;;5034927;28;20178;-67
2024/02/20 05:16:35;;;;;;;9.60;3.83;;;7.20;99.90;;;;;;5040619;28;20182;-67
2024/02/20 05:19:01;;;;;;;6.00;2.70;;;7.20;99.90;;;;;;5049598;28;20701;-67
2024/02/20 05:21:26;;;;;;;9.70;4.60;;;7.20;99.90;;;;;;5062624;28;20181;-67
2024/02/20 05:23:52;;;;;;;11.40;3.30;;;7.20;99.90;;;;;;5067767;28;20207;-67
2024/02/20 05:26:17;;;;;;;8.60;3.20;;;7.20;99.90;;;;;;5070623;28;20177;-67
2024/02/20 05:28:43;;;;;;;9.53;3.57;;;7.20;99.90;;;;;;5048580;28;20555;-67
2024/02/20 05:31:29;;;;;;;10.10;2.70;;;7.10;99.90;;;;;;5064478;28;20177;-67
2024/02/20 05:33:58;;;;;;;10.97;4.00;;;7.00;99.90;;;;;;5074446;28;20177;-67
2024/02/20 05:36:31;;;;;;;8.50;2.97;;;7.00;99.90;;;;;;5060465;28;20431;-67
2024/02/20 05:39:05;;;;;;;4.23;2.80;;;7.00;99.90;;;;;;5059583;28;20971;-67
2024/02/20 05:41:31;;;;;;;15.13;2.57;;;7.00;99.90;;;;;;5056127;28;20427;-67
2024/02/20 05:43:58;;;;;;;8.83;3.30;;;7.00;99.90;;;;;;5050068;28;20821;-67
2024/02/20 05:46:25;;;;;;;11.77;2.93;;;7.00;99.90;;;;;;5065709;28;20165;-67
2024/02/20 05:48:51;;;;;;;10.10;2.70;;;7.00;99.90;;;;;;5065365;28;20481;-67
2024/02/20 05:51:16;;;;;;;9.53;3.10;;;7.10;99.90;;;;;;5063869;28;20458;-67
2024/02/20 05:53:42;;;;;;;8.10;3.23;;;7.10;99.90;;;;;;5061053;28;20181;-67
2024/02/20 05:56:09;;;;;;;13.13;3.97;;;7.10;99.90;;;;;;5063793;28;20173;-67
2024/02/20 05:58:35;;;;;;;7.33;2.63;;;7.10;99.90;;;;;;5058751;28;20214;-66
2024/02/20 06:01:01;;;;;;;9.27;2.80;;;7.10;99.90;;;;;;5046165;28;20431;-66
2024/02/20 06:03:26;;;;;;;8.60;4.00;;;7.10;99.90;;;;;;5038390;28;20198;-66
2024/02/20 06:05:51;;;;;;;9.53;4.63;;;7.10;99.90;;;;;;5054981;28;20185;-66
2024/02/20 06:08:17;;;;;;;6.23;2.80;;;7.10;99.90;;;;;;5064356;28;20199;-66
2024/02/20 06:10:43;;;;;;;12.73;3.50;;;7.10;99.90;;;;;;5061697;28;20614;-66
2024/02/20 06:13:09;;;;;;;6.90;2.93;;;7.10;99.90;;;;;;5054843;28;20196;-66
2024/02/20 06:15:35;;;;;;;6.17;3.03;;;7.10;99.90;;;;;;5049279;28;20170;-66
2024/02/20 06:18:00;;;;;;;8.00;3.30;;;7.10;99.90;;;;;;5061336;28;20971;-66
2024/02/20 06:20:26;;;;;;;8.00;3.10;;;7.10;99.90;;;;;;5055475;28;20169;-66
2024/02/20 06:22:51;;;;;;;9.03;3.57;;;7.10;99.90;;;;;;5059505;28;20257;-66
2024/02/20 06:25:17;;;;;;;8.23;3.03;;;7.00;99.90;;;;;;5067099;28;20208;-66
2024/02/20 06:27:45;;;;;;;14.77;3.00;;;6.90;99.90;;;;;;5053129;28;20185;-65
2024/02/20 06:30:12;;;;;;;9.47;3.73;;;6.90;99.90;;;;;;5048603;28;20178;-66
2024/02/20 06:32:39;;;;;;;10.73;3.50;;;6.90;99.90;;;;;;5061375;28;20510;-65
2024/02/20 06:35:08;;;;;;;18.37;5.30;;;7.00;99.90;;;;;;5042645;28;20445;-66
2024/02/20 06:37:33;;;;;;;6.63;2.83;;;7.00;99.90;;;;;;5065146;28;20832;-66
2024/02/20 06:39:59;;;;;;;13.47;5.40;;;7.00;99.90;;;;;;5070271;28;20415;-66
2024/02/20 06:42:24;;;;;;;8.27;3.03;;;7.00;99.90;;;;;;5073043;28;20498;-66
2024/02/20 06:44:50;;;;;;;10.30;3.60;;;7.00;99.90;;;;;;5061731;28;20204;-66
2024/02/20 06:47:15;;;;;;;8.40;3.50;;;7.00;99.90;;;;;;5049086;28;20547;-66
2024/02/20 06:49:41;;;;;;;9.40;3.43;;;7.00;99.90;;;;;;5053972;28;20649;-66
2024/02/20 06:52:06;;;;;;;8.93;3.70;;;7.00;99.90;;;;;;5060835;28;20178;-66
2024/02/20 06:54:32;;;;;;;11.00;3.60;;;7.10;99.90;;;;;;5046379;28;20178;-66
2024/02/20 06:56:58;;;;;;;10.47;3.50;;;7.10;99.90;;;;;;5050922;28;20578;-66
2024/02/20 06:59:24;;;;;;;8.13;2.80;;;7.20;99.90;;;;;;5055877;28;20214;-66
2024/02/20 07:01:51;;;;;;;20.33;4.50;;;7.10;99.90;;;;;;5055563;28;20513;-66
2024/02/20 07:04:17;;;;;;;8.73;3.40;;;7.10;99.90;;;;;;5055674;28;20486;-66
2024/02/20 07:06:42;;;;;;;10.73;3.20;;;7.20;99.90;;;;;;5056973;28;20875;-66
2024/02/20 07:09:08;;;;;;;5.40;2.97;;;7.30;99.90;;;;;;5058865;28;20208;-66
2024/02/20 07:11:34;;;;;;;6.00;3.90;;;7.30;99.90;;;;;;5064608;28;20591;-66
2024/02/20 07:13:59;;;;;;;8.50;3.43;;;7.30;99.90;;;;;;5060975;28;20181;-66
2024/02/20 07:16:25;;;;;;;15.00;4.87;;;7.30;99.90;;;;;;5049984;28;20178;-66
2024/02/20 07:18:50;;;;;;;11.20;3.53;;;7.40;99.90;;;;;;5056356;28;20202;-66
2024/02/20 07:21:16;;;;;;;11.87;3.80;;;7.50;99.90;;;;;;5063443;28;20172;-66
2024/02/20 07:23:41;;;;;;;8.73;2.83;;;7.60;99.90;;;;;;5069272;28;20296;-66
2024/02/20 07:26:07;;;;;;;9.73;3.23;;;7.70;99.90;;;;;;5051014;28;20181;-66
2024/02/20 07:28:33;;;;;;;7.20;3.67;;;7.70;99.90;;;;;;5048288;28;20191;-66
2024/02/20 07:30:58;;;;;;;9.43;2.83;;;7.70;99.90;;;;;;5043851;28;20278;-66
2024/02/20 07:33:26;;;;;;;9.77;3.50;;;7.70;99.90;;;;;;5043453;28;20238;-66
2024/02/20 07:35:51;;;;;;;7.93;3.30;;;7.60;99.90;;;;;;5044474;28;20185;-65
2024/02/20 07:38:17;;;;;;;9.93;3.20;;;7.60;99.90;;;;;;5055321;28;20806;-65
2024/02/20 07:40:42;;;;;;;12.90;3.77;;;7.60;99.90;;;;;;5062746;28;20181;-65
2024/02/20 07:43:08;;;;;;;8.17;3.90;;;7.60;99.90;;;;;;5053626;28;20185;-65
2024/02/20 07:45:33;;;;;;;11.23;5.97;;;7.80;99.90;;;;;;5047349;28;20585;-66
2024/02/20 07:47:59;;;;;;;11.70;4.10;;;7.90;99.90;;;;;;5049932;28;20627;-66
2024/02/20 07:50:24;;;;;;;11.13;3.70;;;8.20;99.90;;;;;;5057891;28;20662;-66
2024/02/20 07:52:50;;;;;;;10.60;3.40;;;8.50;99.90;;;;;;5058179;28;20165;-66
2024/02/20 07:55:17;;;;;;;7.73;2.73;;;8.40;99.90;;;;;;5062102;28;20172;-66
2024/02/20 07:57:42;;;;;;;8.30;3.40;;;8.40;99.90;;;;;;5059403;28;20204;-66
2024/02/20 08:00:11;;;;;;;10.57;3.70;;;8.40;99.90;;;;;;5047591;28;20900;-66
2024/02/20 08:02:37;;;;;;;7.73;3.00;;;8.40;99.90;;;;;;5051891;28;20574;-66
2024/02/20 08:05:04;;;;;;;7.60;3.43;;;8.40;99.90;;;;;;5059540;28;20558;-66
2024/02/20 08:07:30;;;;;;;11.27;3.80;;;8.50;99.90;;;;;;5056368;28;20452;-66
2024/02/20 08:09:55;;;;;;;3.97;2.73;;;8.60;99.90;;;;;;5057939;28;20432;-66
2024/02/20 08:12:22;;;;;;;10.70;3.63;;;8.70;99.90;;;;;;5063386;28;20182;-67
2024/02/20 08:14:47;;;;;;;4.67;2.90;;;8.70;99.90;;;;;;5052606;28;20312;-66
2024/02/20 08:17:13;;;;;;;45.93;9.23;;;8.80;99.90;;;;;;5056313;28;20900;-67
2024/02/20 08:19:40;;;;;;;11.60;3.60;;;9.00;99.90;;;;;;5056180;28;20193;-67
2024/02/20 08:22:05;;;;;;;9.53;4.80;;;9.10;99.90;;;;;;5041667;28;20206;-68
2024/02/20 08:24:31;;;;;;;8.80;4.40;;;9.20;99.90;;;;;;5058242;28;20483;-68
2024/02/20 08:26:57;;;;;;;7.53;3.73;;;9.30;99.90;;;;;;5042498;28;20195;-68
2024/02/20 08:29:24;;;;;;;7.60;3.07;;;9.40;99.90;;;;;;5056836;28;20569;-69
2024/02/20 08:31:49;;;;;;;14.67;3.77;;;9.50;99.90;;;;;;5052725;28;20436;-67
2024/02/20 08:34:15;;;;;;;7.17;3.03;;;9.70;99.90;;;;;;5055619;28;20506;-68
2024/02/20 08:36:41;;;;;;;4.43;2.77;;;10.40;99.90;;;;;;5054617;28;20638;-68
2024/02/20 08:39:06;;;;;;;8.30;4.13;;;11.10;99.90;;;;;;5038357;28;20202;-68
2024/02/20 08:41:32;;;;;;;11.80;3.53;;;11.50;99.90;;;;;;5063150;28;20259;-67
2024/02/20 08:43:58;;;;;;;7.40;2.53;;;11.40;99.90;;;;;;5045342;28;20197;-69
2024/02/20 08:46:24;;;;;;;5.97;2.60;;;11.20;99.90;;;;;;5053203;28;20165;-69
2024/02/20 08:48:51;;;;;;;11.03;5.07;;;11.40;99.90;;;;;;5057089;28;20443;-69
2024/02/20 08:51:17;;;;;;;10.30;3.27;;;11.50;99.90;;;;;;5049923;28;20223;-68
2024/02/20 08:53:43;;;;;;;8.27;3.80;;;11.40;99.90;;;;;;5064295;28;20838;-68
2024/02/20 08:56:09;;;;;;;7.00;2.93;;;11.00;99.90;;;;;;5046865;28;20235;-68
2024/02/20 08:58:34;;;;;;;6.40;4.63;;;10.90;99.90;;;;;;5059395;28;20459;-68
2024/02/20 09:01:00;;;;;;;9.53;3.80;;;10.80;99.90;;;;;;5042942;28;20254;-70
2024/02/20 09:03:28;;;;;;;6.30;3.67;;;10.80;99.90;;;;;;5049710;28;20214;-68
2024/02/20 09:05:54;;;;;;;9.23;3.70;;;10.80;99.90;;;;;;5054195;28;20208;-68
2024/02/20 09:08:20;;;;;;;7.33;4.63;;;11.00;99.90;;;;;;5046013;28;20471;-68
2024/02/20 09:10:48;;;;;;;9.23;3.63;;;10.80;99.90;;;;;;5054601;28;20447;-68
2024/02/20 09:13:14;;;;;;;10.10;5.00;;;10.70;99.90;;;;;;5047903;28;20666;-67
2024/02/20 09:15:39;;;;;;;19.77;4.30;;;10.50;99.90;;;;;;5042893;28;20454;-67
2024/02/20 09:18:05;;;;;;;10.43;5.23;;;10.50;99.90;;;;;;5057816;28;20277;-68
2024/02/20 09:20:30;;;;;;;9.60;4.33;;;10.30;99.90;;;;;;5060522;28;20169;-68
2024/02/20 09:22:57;;;;;;;11.47;4.17;;;10.40;99.90;;;;;;5041101;28;20540;-67
2024/02/20 09:25:22;;;;;;;9.13;4.30;;;10.60;99.90;;;;;;5054383;28;20206;-68
2024/02/20 09:27:48;;;;;;;11.30;5.07;;;10.90;99.90;;;;;;5046160;28;20455;-69
2024/02/20 09:30:14;;;;;;;8.90;3.80;;;11.40;99.90;;;;;;5040502;28;20185;-67
2024/02/20 09:32:43;;;;;;;11.80;4.50;;;11.70;99.90;;;;;;5049650;28;20262;-67
2024/02/20 09:35:08;;;;;;;6.63;3.97;;;11.70;99.90;;;;;;5045016;28;20217;-68
2024/02/20 09:37:34;;;;;;;16.63;4.27;;;11.80;99.90;;;;;;5048913;28;20561;-68
2024/02/20 09:39:59;;;;;;;11.63;3.80;;;12.10;99.90;;;;;;5051589;28;20198;-68
2024/02/20 09:42:26;;;;;;;10.60;3.60;;;12.50;99.90;;;;;;5056829;28;20177;-68
2024/02/20 09:44:54;;;;;;;9.57;4.17;;;12.20;99.90;;;;;;5051961;28;20193;-68
2024/02/20 09:47:21;;;;;;;18.33;4.77;;;12.30;99.90;;;;;;5048552;28;20428;-69
2024/02/20 09:49:50;;;;;;;11.37;4.27;;;12.60;99.90;;;;;;5056475;28;20887;-68
2024/02/20 09:52:18;;;;;;;8.07;4.53;;;12.70;99.90;;;;;;5062552;28;20435;-68
2024/02/20 09:54:44;;;;;;;6.60;3.83;;;13.20;99.90;;;;;;5061285;28;20430;-67
2024/02/20 09:57:10;;;;;;;11.47;4.57;;;13.90;99.90;;;;;;5053517;28;20494;-68
2024/02/20 09:59:35;;;;;;;12.00;4.80;;;13.70;99.90;;;;;;5047615;28;20436;-68
2024/02/20 10:02:02;;;;;;;12.07;4.30;;;13.40;99.90;;;;;;5046908;28;20460;-67
2024/02/20 10:04:33;;;;;;;8.60;3.80;;;12.70;99.90;;;;;;5062367;28;20610;-67
2024/02/20 10:07:03;;;;;;;11.50;5.10;;;12.30;99.90;;;;;;5047699;28;20942;-68
2024/02/20 10:09:31;;;;;;;12.87;4.57;;;12.40;99.90;;;;;;5041789;28;20819;-67
2024/02/20 10:11:56;;;;;;;10.97;6.20;;;12.60;99.90;;;;;;5057671;28;20454;-68
2024/02/20 10:14:28;;;;;;;9.77;5.10;;;12.80;99.90;;;;;;5048424;28;20427;-68
2024/02/20 10:16:59;;;;;;;8.10;4.33;;;12.80;99.90;;;;;;5049252;28;20211;-68
2024/02/20 10:19:25;;;;;;;8.47;3.70;;;13.90;99.90;;;;;;5048874;28;20494;-68
2024/02/20 10:21:51;;;;;;;13.33;4.87;;;16.50;99.90;;;;;;5034638;28;20937;-67
2024/02/20 10:24:16;;;;;;;7.10;3.50;;;18.90;95.10;;;;;;5045536;28;20270;-68
2024/02/20 10:26:45;;;;;;;6.17;3.60;;;19.20;85.40;;;;;;5046388;28;20434;-68
2024/02/20 10:29:11;;;;;;;8.90;4.20;;;17.90;88.40;;;;;;5050941;28;20225;-68
2024/02/20 10:31:36;;;;;;;8.10;3.10;;;18.80;89.20;;;;;;5041207;28;20464;-68
2024/02/20 10:34:02;;;;;;;7.03;3.70;;;20.10;74.20;;;;;;5051223;28;20182;-68
2024/02/20 10:36:28;;;;;;;6.50;2.70;;;20.70;68.10;;;;;;5046070;28;20190;-68
2024/02/20 10:39:09;;;;;;;8.57;3.40;;;21.30;59.60;;;;;;5047512;28;20259;-68
2024/02/20 10:41:34;;;;;;;10.63;4.07;;;18.80;62.90;;;;;;5046797;28;20223;-67
2024/02/20 10:44:00;;;;;;;10.27;4.87;;;17.40;75.60;;;;;;5059447;28;20462;-69
2024/02/20 10:46:26;;;;;;;9.17;3.30;;;16.30;83.70;;;;;;5039431;28;20558;-66
2024/02/20 10:48:56;;;;;;;8.93;5.23;;;15.50;91.90;;;;;;5054225;28;20193;-67
2024/02/20 10:51:26;;;;;;;12.70;5.50;;;14.50;96.80;;;;;;5045845;28;21111;-68
2024/02/20 10:53:54;;;;;;;7.13;3.70;;;13.90;99.90;;;;;;5054127;28;20980;-71
2024/02/20 10:56:21;;;;;;;6.23;3.23;;;13.50;99.90;;;;;;5061305;28;20477;-68
2024/02/20 10:58:49;;;;;;;6.77;3.30;;;13.40;99.90;;;;;;5050503;28;20482;-68
2024/02/20 11:01:15;;;;;;;11.30;4.90;;;13.40;99.90;;;;;;5044206;28;21739;-66
2024/02/20 11:03:42;;;;;;;7.80;3.30;;;13.40;99.90;;;;;;5059589;28;20813;-66
2024/02/20 11:06:09;;;;;;;9.53;3.87;;;13.40;99.90;;;;;;5059797;28;20428;-67
2024/02/20 11:08:35;;;;;;;6.73;3.70;;;14.10;99.90;;;;;;5057888;28;20447;-68
2024/02/20 11:11:23;;;;;;;8.17;3.70;;;15.80;97.00;;;;;;5053488;28;20431;-67
2024/02/20 11:13:56;;;;;;;9.47;4.10;;;17.10;90.20;;;;;;5049604;28;20182;-67
2024/02/20 11:16:35;;;;;;;5.47;3.10;;;18.80;78.50;;;;;;5046857;28;20847;-67
2024/02/20 11:19:01;;;;;;;7.50;3.17;;;18.50;72.10;;;;;;5050770;28;20994;-68
2024/02/20 11:21:28;;;;;;;6.93;3.37;;;18.80;74.10;;;;;;5040461;28;20435;-67
2024/02/20 11:23:55;;;;;;;10.27;2.57;;;18.50;71.60;;;;;;5040602;28;20479;-67
2024/02/20 11:26:28;;;;;;;7.80;3.23;;;17.40;74.60;;;;;;5047839;28;20428;-68
2024/02/20 11:28:56;;;;;;;6.30;3.03;;;17.90;74.90;;;;;;5048991;28;20436;-67
2024/02/20 11:31:28;;;;;;;8.50;3.40;;;20.50;65.30;;;;;;5049989;28;20423;-68
2024/02/20 11:33:57;;;;;;;6.70;2.60;;;22.90;54.20;;;;;;5048175;28;20475;-68
2024/02/20 11:36:24;;;;;;;7.60;3.10;;;24.80;47.80;;;;;;5040015;28;20878;-69
2024/02/20 11:39:05;;;;;;;6.80;2.73;;;24.40;43.30;;;;;;5047256;28;20538;-68
2024/02/20 11:41:34;;;;;;;8.27;3.10;;;22.10;43.80;;;;;;5041602;28;20514;-68
2024/02/20 11:44:04;;;;;;;5.30;3.03;;;20.30;47.00;;;;;;5040566;28;20459;-68
2024/02/20 11:46:32;;;;;;;4.57;3.07;;;18.80;51.70;;;;;;5060076;28;20443;-69
2024/02/20 11:48:58;;;;;;;5.67;3.17;;;17.20;55.00;;;;;;5041605;28;20499;-68
2024/02/20 11:51:25;;;;;;;8.70;3.43;;;16.40;60.90;;;;;;5065075;28;20424;-68
2024/02/20 11:54:01;;;;;;;7.90;3.60;;;16.40;62.80;;;;;;5049296;28;20497;-67
2024/02/20 11:56:28;;;;;;;4.93;3.03;;;16.30;64.70;;;;;;5039440;28;20517;-68
2024/02/20 11:58:55;;;;;;;10.07;3.70;;;15.90;67.90;;;;;;5056107;28;20525;-69
2024/02/20 12:01:21;;;;;;;9.30;4.30;;;15.40;73.50;;;;;;5043298;28;20476;-68
2024/02/20 12:03:46;;;;;;;6.77;2.70;;;14.80;79.10;;;;;;5044710;28;20506;-68
2024/02/20 12:06:12;;;;;;;5.90;3.27;;;14.20;85.80;;;;;;5038631;28;21508;-66
2024/02/20 12:08:44;;;;;;;7.23;3.50;;;13.80;90.50;;;;;;5037262;28;20202;-68
2024/02/20 12:11:11;;;;;;;14.03;5.50;;;13.50;94.30;;;;;;5057192;28;20211;-69
2024/02/20 12:13:37;;;;;;;8.27;3.93;;;13.50;95.10;;;;;;5051057;28;20436;-67
2024/02/20 12:16:03;;;;;;;10.00;3.70;;;13.30;93.80;;;;;;5061321;28;20427;-67
2024/02/20 12:18:31;;;;;;;8.10;3.00;;;13.20;94.30;;;;;;5045569;28;20471;-68
2024/02/20 12:21:10;;;;;;;5.63;2.90;;;13.00;94.20;;;;;;5059339;28;20176;-67
2024/02/20 12:23:39;;;;;;;5.23;2.60;;;13.00;93.40;;;;;;5045010;28;20463;-67
2024/02/20 12:26:11;;;;;;;9.43;2.87;;;13.20;92.70;;;;;;5038765;28;20459;-68
2024/02/20 12:28:39;;;;;;;5.90;2.67;;;13.20;91.70;;;;;;5045109;28;20452;-67
2024/02/20 12:31:05;;;;;;;7.37;4.13;;;13.80;89.80;;;;;;5037373;28;20428;-67
2024/02/20 12:33:32;;;;;;;6.83;3.20;;;13.40;89.90;;;;;;5043298;28;20431;-67
2024/02/20 12:35:58;;;;;;;4.73;3.73;;;13.70;92.90;;;;;;5045835;28;20937;-67
2024/02/20 12:38:25;;;;;;;5.70;2.80;;;13.20;92.40;;;;;;5047790;28;20467;-67
2024/02/20 12:40:50;;;;;;;7.83;2.87;;;13.60;93.30;;;;;;5059069;28;20489;-66
2024/02/20 12:43:16;;;;;;;6.30;3.63;;;14.10;92.20;;;;;;5063111;28;20434;-66
2024/02/20 12:45:42;;;;;;;6.93;3.63;;;14.20;92.20;;;;;;5066523;28;20192;-67